Time;durP1;ratioP1;P1;durP2;ratioP2;P2;SDS_P1;SDS_P2;PMS_P1;PMS_P2;Temp;Humidity;BMP_temperature;BMP_pressure;BME280_temperature;BME280_humidity;BME280_pressure;Samples;Min_cycle;Max_cycle;Signal;HPM_P1;HPM_P2
2022/11/23 00:00:58;;;;;;;23.27;10.90;;;8.00;99.90;;;;;;5004314;28;20090;-42
2022/11/23 00:03:25;;;;;;;20.77;11.13;;;8.00;99.90;;;;;;5005740;28;20139;-41
2022/11/23 00:05:53;;;;;;;21.75;10.98;;;8.00;99.90;;;;;;5004044;28;20140;-41
2022/11/23 00:08:20;;;;;;;23.67;10.80;;;8.00;99.90;;;;;;5012886;28;20081;-41
2022/11/23 00:10:47;;;;;;;20.83;11.00;;;8.00;99.90;;;;;;5001925;28;20081;-42
2022/11/23 00:13:14;;;;;;;16.52;10.70;;;8.00;99.90;;;;;;5008414;28;20104;-41
2022/11/23 00:15:40;;;;;;;20.67;11.35;;;8.00;99.90;;;;;;5004743;28;20132;-40
2022/11/23 00:18:07;;;;;;;18.58;11.05;;;8.10;99.90;;;;;;5006876;28;20050;-41
2022/11/23 00:20:34;;;;;;;22.95;10.55;;;8.10;99.90;;;;;;4999334;28;20140;-42
2022/11/23 00:23:02;;;;;;;21.73;10.57;;;8.10;99.90;;;;;;5009104;28;20046;-40
2022/11/23 00:25:29;;;;;;;19.67;10.65;;;8.10;99.90;;;;;;5012873;28;20096;-41
2022/11/23 00:27:56;;;;;;;18.17;10.93;;;8.10;99.90;;;;;;5001749;28;20057;-40
2022/11/23 00:30:22;;;;;;;19.17;10.30;;;8.10;99.90;;;;;;5006941;28;20058;-41
2022/11/23 00:32:49;;;;;;;18.67;10.52;;;8.10;99.90;;;;;;5008556;28;20546;-39
2022/11/23 00:35:16;;;;;;;17.40;10.15;;;8.10;99.90;;;;;;5012523;28;20060;-42
2022/11/23 00:37:43;;;;;;;20.92;10.82;;;8.10;99.90;;;;;;5010227;28;20482;-40
2022/11/23 00:40:12;;;;;;;20.80;10.95;;;8.10;99.90;;;;;;5010456;28;20081;-40
2022/11/23 00:42:39;;;;;;;19.38;10.73;;;8.10;99.90;;;;;;5006671;28;20085;-43
2022/11/23 00:45:06;;;;;;;18.48;11.07;;;8.10;99.90;;;;;;4998889;28;20045;-40
2022/11/23 00:47:33;;;;;;;17.05;10.20;;;8.10;99.90;;;;;;5007895;28;20548;-40
2022/11/23 00:50:00;;;;;;;19.02;10.75;;;8.10;99.90;;;;;;5012338;28;20057;-41
2022/11/23 00:52:27;;;;;;;19.85;10.98;;;8.20;99.90;;;;;;5011579;28;20058;-40
2022/11/23 00:54:54;;;;;;;20.10;10.48;;;8.10;99.90;;;;;;4994341;28;20042;-41
2022/11/23 00:57:22;;;;;;;17.42;10.85;;;8.10;99.90;;;;;;5000783;28;20145;-40
2022/11/23 00:59:48;;;;;;;17.98;11.25;;;8.10;99.90;;;;;;4998899;28;20152;-40
2022/11/23 01:02:15;;;;;;;21.30;10.75;;;8.10;99.90;;;;;;5002292;28;20050;-40
2022/11/23 01:04:42;;;;;;;19.95;10.93;;;8.10;99.90;;;;;;4998767;28;20050;-41
2022/11/23 01:07:09;;;;;;;20.00;10.95;;;8.10;99.90;;;;;;5011043;28;20125;-40
2022/11/23 01:09:35;;;;;;;16.48;10.55;;;8.20;99.90;;;;;;5009897;28;20096;-39
2022/11/23 01:12:02;;;;;;;21.65;11.50;;;8.20;99.90;;;;;;5003155;28;20137;-40
2022/11/23 01:14:30;;;;;;;25.33;11.95;;;8.20;99.90;;;;;;4997360;28;20403;-40
2022/11/23 01:16:57;;;;;;;21.58;10.73;;;8.10;99.90;;;;;;5002528;28;20566;-41
2022/11/23 01:19:24;;;;;;;21.95;10.80;;;8.20;99.90;;;;;;5012075;28;20081;-40
2022/11/23 01:21:51;;;;;;;20.40;10.25;;;8.10;99.90;;;;;;5011485;28;20137;-39
2022/11/23 01:24:18;;;;;;;17.75;11.10;;;8.20;99.90;;;;;;4999399;28;20052;-41
2022/11/23 01:26:45;;;;;;;23.33;11.20;;;8.20;99.90;;;;;;4995218;28;21053;-41
2022/11/23 01:29:13;;;;;;;19.55;10.70;;;8.10;99.90;;;;;;5007337;28;20084;-41
2022/11/23 01:31:41;;;;;;;20.75;10.73;;;8.20;99.90;;;;;;4996509;28;20086;-40
2022/11/23 01:34:10;;;;;;;22.73;11.32;;;8.20;99.90;;;;;;5003200;28;20137;-40
2022/11/23 01:36:36;;;;;;;16.83;9.90;;;8.20;99.90;;;;;;5008228;28;20563;-41
2022/11/23 01:39:04;;;;;;;21.08;10.57;;;8.20;99.90;;;;;;4996618;28;20077;-36
2022/11/23 01:41:32;;;;;;;17.92;10.35;;;8.20;99.90;;;;;;5006269;28;20085;-41
2022/11/23 01:43:59;;;;;;;21.65;10.13;;;8.20;99.90;;;;;;5000342;28;20100;-40
2022/11/23 01:46:25;;;;;;;18.00;10.77;;;8.20;99.90;;;;;;4999373;28;20506;-41
2022/11/23 01:48:55;;;;;;;21.30;11.65;;;8.20;99.90;;;;;;5004518;28;20136;-41
2022/11/23 01:51:26;;;;;;;18.08;9.82;;;8.30;99.90;;;;;;5008090;28;20510;-40
2022/11/23 01:53:54;;;;;;;20.67;11.50;;;8.20;99.90;;;;;;5007740;28;20081;-41
2022/11/23 01:56:23;;;;;;;17.35;10.63;;;8.30;99.90;;;;;;5008435;28;20050;-40
2022/11/23 01:58:51;;;;;;;22.67;10.98;;;8.20;99.90;;;;;;5009482;28;20129;-39
2022/11/23 02:01:18;;;;;;;18.08;11.32;;;8.20;99.90;;;;;;5005231;28;20129;-41
2022/11/23 02:03:45;;;;;;;23.63;11.52;;;8.20;99.90;;;;;;5013621;28;20054;-44
2022/11/23 02:06:15;;;;;;;22.88;12.18;;;8.30;99.90;;;;;;5013455;28;20109;-38
2022/11/23 02:08:42;;;;;;;22.08;11.82;;;8.30;99.90;;;;;;4996835;28;20112;-38
2022/11/23 02:11:09;;;;;;;21.00;11.98;;;8.30;99.90;;;;;;5010124;28;20099;-39
2022/11/23 02:13:36;;;;;;;17.85;11.35;;;8.30;99.90;;;;;;5013486;28;20129;-39
2022/11/23 02:16:02;;;;;;;18.95;11.93;;;8.30;99.90;;;;;;5005225;28;20516;-39
2022/11/23 02:18:30;;;;;;;25.90;12.70;;;8.30;99.90;;;;;;5016358;28;20049;-39
2022/11/23 02:20:57;;;;;;;25.80;11.45;;;8.30;99.90;;;;;;5011228;28;20133;-36
2022/11/23 02:23:32;;;;;;;18.33;11.98;;;8.30;99.90;;;;;;5014057;28;20070;-40
2022/11/23 02:26:02;;;;;;;21.20;11.10;;;8.30;99.90;;;;;;5014347;28;20128;-40
2022/11/23 02:28:30;;;;;;;25.25;12.55;;;8.30;99.90;;;;;;5002556;28;20466;-42
2022/11/23 02:30:57;;;;;;;16.35;10.93;;;8.30;99.90;;;;;;5004526;28;20502;-40
2022/11/23 02:33:24;;;;;;;18.48;12.07;;;8.30;99.90;;;;;;5027562;28;20564;-43
2022/11/23 02:35:52;;;;;;;23.25;12.23;;;8.20;99.90;;;;;;5010938;28;20046;-39
2022/11/23 02:38:18;;;;;;;24.45;11.90;;;8.20;99.90;;;;;;5002696;28;20049;-43
2022/11/23 02:40:45;;;;;;;20.75;11.98;;;8.30;99.90;;;;;;5000622;28;20104;-43
2022/11/23 02:43:14;;;;;;;23.55;13.00;;;8.30;99.90;;;;;;4995484;28;20054;-41
2022/11/23 02:45:43;;;;;;;21.40;13.15;;;8.30;99.90;;;;;;4997815;28;20494;-41
2022/11/23 02:48:10;;;;;;;26.67;13.40;;;8.30;99.90;;;;;;5008095;28;20096;-41
2022/11/23 02:50:37;;;;;;;24.30;13.25;;;8.20;99.90;;;;;;5014425;28;20081;-41
2022/11/23 02:53:03;;;;;;;22.98;13.98;;;8.20;99.90;;;;;;5014496;28;20096;-40
2022/11/23 02:55:30;;;;;;;25.45;13.85;;;8.30;99.90;;;;;;5014906;28;20494;-41
2022/11/23 02:57:57;;;;;;;24.95;13.73;;;8.30;99.90;;;;;;5013396;28;20054;-40
2022/11/23 03:00:25;;;;;;;29.92;14.93;;;8.30;99.90;;;;;;5013859;28;20414;-41
2022/11/23 03:02:52;;;;;;;24.27;13.35;;;8.30;99.90;;;;;;5013144;28;20073;-39
2022/11/23 03:05:18;;;;;;;27.23;14.25;;;8.30;99.90;;;;;;5010615;28;20128;-41
2022/11/23 03:07:45;;;;;;;25.08;14.20;;;8.30;99.90;;;;;;5012300;28;20084;-40
2022/11/23 03:10:12;;;;;;;27.92;15.00;;;8.30;99.90;;;;;;5010958;28;20054;-40
2022/11/23 03:12:39;;;;;;;27.45;15.23;;;8.30;99.90;;;;;;5005639;28;20128;-41
2022/11/23 03:15:07;;;;;;;28.50;16.33;;;8.30;99.90;;;;;;4996584;28;20533;-40
2022/11/23 03:17:35;;;;;;;31.70;16.00;;;8.30;99.90;;;;;;4999722;28;20459;-39
2022/11/23 03:20:02;;;;;;;27.65;16.23;;;8.30;99.90;;;;;;5006454;28;20152;-40
2022/11/23 03:22:28;;;;;;;30.17;16.45;;;8.30;99.90;;;;;;5000430;28;20089;-40
2022/11/23 03:24:56;;;;;;;31.98;18.35;;;8.30;99.90;;;;;;5006259;28;20129;-40
2022/11/23 03:27:23;;;;;;;32.85;17.73;;;8.30;99.90;;;;;;5001065;28;20049;-40
2022/11/23 03:29:50;;;;;;;31.95;17.40;;;8.30;99.90;;;;;;5005249;28;20112;-38
2022/11/23 03:32:16;;;;;;;25.98;16.13;;;8.30;99.90;;;;;;5000531;28;20394;-42
2022/11/23 03:34:44;;;;;;;32.17;18.13;;;8.30;99.90;;;;;;4994237;28;20662;-41
2022/11/23 03:37:11;;;;;;;33.72;18.42;;;8.30;99.90;;;;;;5005470;28;20488;-39
2022/11/23 03:39:38;;;;;;;36.22;19.15;;;8.30;99.90;;;;;;5009254;28;20550;-40
2022/11/23 03:42:05;;;;;;;36.97;19.30;;;8.30;99.90;;;;;;5003577;28;20058;-41
2022/11/23 03:44:32;;;;;;;37.33;19.58;;;8.30;99.90;;;;;;5004102;28;20501;-41
2022/11/23 03:46:59;;;;;;;33.00;18.95;;;8.30;99.90;;;;;;5009957;28;20504;-41
2022/11/23 03:49:25;;;;;;;36.70;20.35;;;8.30;99.90;;;;;;5003548;28;20049;-43
2022/11/23 03:51:54;;;;;;;39.63;20.27;;;8.30;99.90;;;;;;5011802;28;20132;-44
2022/11/23 03:54:20;;;;;;;40.17;21.25;;;8.30;99.90;;;;;;5007773;28;20492;-44
2022/11/23 03:56:47;;;;;;;38.95;21.60;;;8.30;99.90;;;;;;5009885;28;20459;-41
2022/11/23 03:59:14;;;;;;;41.45;21.25;;;8.30;99.90;;;;;;5004315;28;20129;-42
2022/11/23 04:01:41;;;;;;;39.65;22.02;;;8.30;99.90;;;;;;4999326;28;20481;-42
2022/11/23 04:04:07;;;;;;;38.75;21.48;;;8.30;99.90;;;;;;5003062;28;20465;-44
2022/11/23 04:06:34;;;;;;;41.63;22.70;;;8.40;99.90;;;;;;5007683;28;20053;-42
2022/11/23 04:09:02;;;;;;;42.00;22.60;;;8.30;99.90;;;;;;4998180;28;20151;-43
2022/11/23 04:11:29;;;;;;;42.08;23.63;;;8.30;99.90;;;;;;5012103;28;20125;-45
2022/11/23 04:13:56;;;;;;;43.42;23.55;;;8.30;99.90;;;;;;5001057;28;20086;-43
2022/11/23 04:16:22;;;;;;;42.33;23.77;;;8.30;99.90;;;;;;5009243;28;20125;-44
2022/11/23 04:18:49;;;;;;;44.70;24.65;;;8.30;99.90;;;;;;5005547;28;20128;-44
2022/11/23 04:21:16;;;;;;;44.03;23.83;;;8.30;99.90;;;;;;5002999;28;20050;-41
2022/11/23 04:23:43;;;;;;;43.67;24.73;;;8.30;99.90;;;;;;5001078;28;20050;-40
2022/11/23 04:26:11;;;;;;;40.72;23.65;;;8.40;99.90;;;;;;5000155;28;20137;-42
2022/11/23 04:28:38;;;;;;;46.50;25.25;;;8.30;99.90;;;;;;4994131;28;20449;-41
2022/11/23 04:31:05;;;;;;;43.78;25.42;;;8.30;99.90;;;;;;5009539;28;20081;-43
2022/11/23 04:33:31;;;;;;;46.15;23.02;;;8.30;99.90;;;;;;5005441;28;20137;-39
2022/11/23 04:35:58;;;;;;;46.63;24.58;;;8.40;99.90;;;;;;5008018;28;20093;-40
2022/11/23 04:38:28;;;;;;;43.08;24.50;;;8.30;99.90;;;;;;5005905;28;20145;-37
2022/11/23 04:40:55;;;;;;;45.67;23.83;;;8.40;99.90;;;;;;5005065;28;20128;-38
2022/11/23 04:43:23;;;;;;;41.90;24.00;;;8.30;99.90;;;;;;4993705;28;20085;-40
2022/11/23 04:45:50;;;;;;;42.15;23.88;;;8.30;99.90;;;;;;4993416;28;20506;-39
2022/11/23 04:48:16;;;;;;;46.28;23.92;;;8.30;99.90;;;;;;5010489;28;20085;-39
2022/11/23 04:50:43;;;;;;;43.13;24.05;;;8.40;99.90;;;;;;5010859;28;20208;-39
2022/11/23 04:53:10;;;;;;;48.70;24.63;;;8.40;99.90;;;;;;5009347;28;20069;-41
2022/11/23 04:55:37;;;;;;;44.90;23.38;;;8.30;99.90;;;;;;5005713;28;20046;-40
2022/11/23 04:58:03;;;;;;;43.47;24.40;;;8.40;99.90;;;;;;4996331;28;20130;-40
2022/11/23 05:00:31;;;;;;;42.45;24.30;;;8.40;99.90;;;;;;5006798;28;20144;-40
2022/11/23 05:02:59;;;;;;;41.25;23.77;;;8.30;99.90;;;;;;5009969;28;20089;-39
2022/11/23 05:05:26;;;;;;;44.70;23.50;;;8.40;99.90;;;;;;5010022;28;20053;-40
2022/11/23 05:07:53;;;;;;;40.17;23.60;;;8.40;99.90;;;;;;5003115;28;20096;-38
2022/11/23 05:10:20;;;;;;;36.45;22.38;;;8.30;99.90;;;;;;5003058;28;20100;-40
2022/11/23 05:12:46;;;;;;;44.60;22.10;;;8.30;99.90;;;;;;5007517;28;20287;-40
2022/11/23 05:15:14;;;;;;;36.58;21.17;;;8.30;99.90;;;;;;5008475;28;20078;-40
2022/11/23 05:17:42;;;;;;;42.80;21.67;;;8.30;99.90;;;;;;5012893;28;20046;-39
2022/11/23 05:20:10;;;;;;;40.20;21.60;;;8.30;99.90;;;;;;5005602;28;20078;-40
2022/11/23 05:22:37;;;;;;;37.20;20.13;;;8.30;99.90;;;;;;4994769;28;20053;-40
2022/11/23 05:25:04;;;;;;;44.38;20.27;;;8.30;99.90;;;;;;5009189;28;20120;-40
2022/11/23 05:27:31;;;;;;;33.05;18.45;;;8.30;99.90;;;;;;5010374;28;20509;-40
2022/11/23 05:29:57;;;;;;;41.95;20.45;;;8.30;99.90;;;;;;4996871;28;20108;-40
2022/11/23 05:32:24;;;;;;;32.17;19.13;;;8.30;99.90;;;;;;5001620;28;20054;-40
2022/11/23 05:34:52;;;;;;;42.33;20.13;;;8.30;99.90;;;;;;5003388;28;20133;-40
2022/11/23 05:37:19;;;;;;;27.73;17.65;;;8.30;99.90;;;;;;5010320;28;20478;-40
2022/11/23 05:39:46;;;;;;;31.85;17.55;;;8.30;99.90;;;;;;5010955;28;20081;-40
2022/11/23 05:42:12;;;;;;;36.92;17.67;;;8.20;99.90;;;;;;5007915;28;20078;-39
2022/11/23 05:44:39;;;;;;;36.25;17.45;;;8.30;99.90;;;;;;4999908;28;20139;-40
2022/11/23 05:47:06;;;;;;;30.63;17.02;;;8.20;99.90;;;;;;5009658;28;20140;-39
2022/11/23 05:49:33;;;;;;;34.13;16.42;;;8.20;99.90;;;;;;5009605;28;20045;-41
2022/11/23 05:52:01;;;;;;;35.25;15.75;;;8.20;99.90;;;;;;4995435;28;20112;-40
2022/11/23 05:54:28;;;;;;;28.88;15.40;;;8.20;99.90;;;;;;5012022;28;20081;-40
2022/11/23 05:56:55;;;;;;;26.65;15.30;;;8.20;99.90;;;;;;5010496;28;20129;-39
2022/11/23 05:59:22;;;;;;;35.38;15.85;;;8.10;99.90;;;;;;5012076;28;20081;-39
2022/11/23 06:01:48;;;;;;;35.47;15.77;;;8.20;99.90;;;;;;5005869;28;20128;-40
2022/11/23 06:04:15;;;;;;;27.98;15.15;;;8.10;99.90;;;;;;5009504;28;20112;-39
2022/11/23 06:06:42;;;;;;;30.05;15.05;;;8.10;99.90;;;;;;5010406;28;20169;-38
2022/11/23 06:09:10;;;;;;;35.92;15.07;;;8.10;99.90;;;;;;5001892;28;20137;-39
2022/11/23 06:11:37;;;;;;;31.27;14.27;;;8.10;99.90;;;;;;5006241;28;20397;-37
2022/11/23 06:14:04;;;;;;;22.92;12.85;;;8.00;99.90;;;;;;5003290;28;20081;-41
2022/11/23 06:16:30;;;;;;;26.95;14.00;;;8.00;99.90;;;;;;4999651;28;20100;-41
2022/11/23 06:18:57;;;;;;;30.42;14.15;;;8.00;99.90;;;;;;5001054;28;20073;-35
2022/11/23 06:21:24;;;;;;;22.45;12.30;;;8.00;99.90;;;;;;5001202;28;20451;-41
2022/11/23 06:23:51;;;;;;;23.42;12.57;;;8.00;99.90;;;;;;5011014;28;20133;-39
2022/11/23 06:26:19;;;;;;;25.55;12.85;;;8.00;99.90;;;;;;4998871;28;20053;-40
2022/11/23 06:28:46;;;;;;;23.77;11.75;;;8.00;99.90;;;;;;5010882;28;20061;-40
2022/11/23 06:31:13;;;;;;;28.67;12.45;;;8.00;99.90;;;;;;5008241;28;20112;-39
2022/11/23 06:33:40;;;;;;;21.23;11.23;;;8.00;99.90;;;;;;4996418;28;20055;-39
2022/11/23 06:36:08;;;;;;;24.38;11.75;;;8.00;99.90;;;;;;5010963;28;20465;-39
2022/11/23 06:38:38;;;;;;;29.27;11.95;;;8.00;99.90;;;;;;5005841;28;20046;-39
2022/11/23 06:41:08;;;;;;;24.48;10.43;;;8.00;99.90;;;;;;4996748;28;20491;-40
2022/11/23 06:43:36;;;;;;;23.42;10.65;;;8.00;99.90;;;;;;5009732;28;20082;-40
2022/11/23 06:46:04;;;;;;;29.40;11.07;;;8.00;99.90;;;;;;5008581;28;20108;-40
2022/11/23 06:48:30;;;;;;;23.65;10.38;;;8.00;99.90;;;;;;4994651;28;20057;-39
2022/11/23 06:50:58;;;;;;;25.73;9.45;;;8.00;99.90;;;;;;5001008;28;20086;-41
2022/11/23 06:53:25;;;;;;;21.05;9.63;;;7.90;99.90;;;;;;5004930;28;20580;-40
2022/11/23 06:55:52;;;;;;;24.27;9.48;;;7.90;99.90;;;;;;5012546;28;20152;-41
2022/11/23 06:58:18;;;;;;;17.08;9.50;;;7.90;99.90;;;;;;5014926;28;20077;-39
2022/11/23 07:00:47;;;;;;;25.35;9.52;;;7.90;99.90;;;;;;5009246;28;20136;-40
2022/11/23 07:03:18;;;;;;;22.02;9.30;;;7.90;99.90;;;;;;5009047;28;20504;-38
2022/11/23 07:05:45;;;;;;;;;;;7.80;99.90;;;;;;5015432;28;20148;-38
2022/11/23 07:08:12;;;;;;;21.73;8.43;;;7.90;99.90;;;;;;5015447;28;20349;-38
2022/11/23 07:10:38;;;;;;;24.58;9.20;;;7.80;99.90;;;;;;5007385;28;20112;-40
2022/11/23 07:13:05;;;;;;;17.33;8.60;;;7.80;99.90;;;;;;5014185;28;20561;-40
2022/11/23 07:15:32;;;;;;;27.52;8.70;;;7.80;99.90;;;;;;5012830;28;20548;-40
2022/11/23 07:18:01;;;;;;;26.38;9.77;;;7.90;99.90;;;;;;5014098;28;20205;-40
2022/11/23 07:20:28;;;;;;;26.00;8.90;;;7.80;99.90;;;;;;5014688;28;20521;-40
2022/11/23 07:23:00;;;;;;;24.02;8.40;;;7.80;99.90;;;;;;5015240;28;20452;-40
2022/11/23 07:25:27;;;;;;;20.80;8.40;;;7.80;99.90;;;;;;5014663;28;20050;-40
2022/11/23 07:27:55;;;;;;;22.67;8.38;;;7.80;99.90;;;;;;5014096;28;20050;-40
2022/11/23 07:30:22;;;;;;;22.90;8.13;;;7.90;99.90;;;;;;5011364;28;20120;-40
2022/11/23 07:32:49;;;;;;;20.73;8.13;;;7.90;99.90;;;;;;5013759;28;20133;-40
2022/11/23 07:35:17;;;;;;;26.63;8.10;;;7.90;99.90;;;;;;5015061;28;20494;-40
2022/11/23 07:37:44;;;;;;;26.02;8.70;;;7.90;99.90;;;;;;5013752;28;20462;-39
2022/11/23 07:40:11;;;;;;;24.08;8.63;;;7.90;99.90;;;;;;5009459;28;20101;-40
2022/11/23 07:42:37;;;;;;;33.75;8.50;;;7.90;99.90;;;;;;4995389;28;20100;-40
2022/11/23 07:45:05;;;;;;;26.02;8.70;;;8.00;99.90;;;;;;4995361;28;20089;-40
2022/11/23 07:47:32;;;;;;;26.60;8.27;;;7.90;99.90;;;;;;5020502;28;20145;-39
2022/11/23 07:49:59;;;;;;;23.48;8.30;;;7.90;99.90;;;;;;5012025;28;20382;-40
2022/11/23 07:52:27;;;;;;;26.45;8.25;;;8.00;99.90;;;;;;5014706;28;20077;-40
2022/11/23 07:54:53;;;;;;;22.50;7.72;;;8.00;99.90;;;;;;5014422;28;20085;-39
2022/11/23 07:57:20;;;;;;;23.80;7.88;;;8.00;99.90;;;;;;5014830;28;20090;-40
2022/11/23 07:59:47;;;;;;;20.95;6.80;;;8.00;99.90;;;;;;5011981;28;20137;-39
2022/11/23 08:02:14;;;;;;;26.90;7.80;;;8.00;99.90;;;;;;5013675;28;20392;-40
2022/11/23 08:04:41;;;;;;;19.45;7.00;;;8.00;99.90;;;;;;5013621;28;20045;-39
2022/11/23 08:07:08;;;;;;;22.60;7.15;;;8.00;99.90;;;;;;5014484;28;20054;-39
2022/11/23 08:09:36;;;;;;;20.58;7.47;;;7.90;99.90;;;;;;5013877;28;20054;-40
2022/11/23 08:12:03;;;;;;;20.15;7.80;;;8.00;99.90;;;;;;5013368;28;20085;-41
2022/11/23 08:14:30;;;;;;;26.67;8.18;;;8.00;99.90;;;;;;5014334;28;20089;-40
2022/11/23 08:16:56;;;;;;;25.02;7.90;;;8.00;99.90;;;;;;5013200;28;20096;-40
2022/11/23 08:19:23;;;;;;;30.92;8.07;;;8.10;99.90;;;;;;5013076;28;20081;-39
2022/11/23 08:21:50;;;;;;;20.63;7.18;;;8.10;99.90;;;;;;4999667;28;20133;-40
2022/11/23 08:24:17;;;;;;;26.55;8.25;;;8.10;99.90;;;;;;5001202;28;20135;-39
2022/11/23 08:26:45;;;;;;;22.58;7.55;;;8.10;99.90;;;;;;5014090;28;20391;-40
2022/11/23 08:29:11;;;;;;;19.80;6.75;;;8.10;99.90;;;;;;5014152;28;20141;-40
2022/11/23 08:31:38;;;;;;;20.23;6.75;;;8.20;99.90;;;;;;5003550;28;20077;-40
2022/11/23 08:34:05;;;;;;;24.67;7.40;;;8.20;99.90;;;;;;5013938;28;20521;-39
2022/11/23 08:36:32;;;;;;;24.05;8.02;;;8.20;99.90;;;;;;5012535;28;20084;-39
2022/11/23 08:38:59;;;;;;;18.77;7.82;;;8.20;99.90;;;;;;5013944;28;20474;-39
2022/11/23 08:41:26;;;;;;;28.30;8.05;;;8.30;99.90;;;;;;5012702;28;20100;-40
2022/11/23 08:43:54;;;;;;;24.67;7.47;;;8.30;99.90;;;;;;5012743;28;20053;-40
2022/11/23 08:46:21;;;;;;;22.98;7.30;;;8.30;99.90;;;;;;5028614;28;20131;-40
2022/11/23 08:48:47;;;;;;;26.90;7.10;;;8.30;99.90;;;;;;5004277;28;20078;-40
2022/11/23 08:51:21;;;;;;;26.10;7.07;;;8.40;99.90;;;;;;5012837;28;20050;-39
2022/11/23 08:53:47;;;;;;;22.10;7.03;;;8.40;99.90;;;;;;5013800;28;20045;-40
2022/11/23 08:56:14;;;;;;;24.10;6.85;;;8.40;99.90;;;;;;5013663;28;20081;-39
2022/11/23 08:58:41;;;;;;;20.92;6.07;;;8.50;99.90;;;;;;5012154;28;20061;-39
2022/11/23 09:01:09;;;;;;;27.92;6.97;;;8.40;99.90;;;;;;5012647;28;20467;-39
2022/11/23 09:03:36;;;;;;;24.15;6.35;;;8.50;99.90;;;;;;5011801;28;20085;-39
2022/11/23 09:06:03;;;;;;;25.20;6.40;;;8.50;99.90;;;;;;5012404;28;20080;-40
2022/11/23 09:08:30;;;;;;;24.50;6.38;;;8.50;99.90;;;;;;5013468;28;20093;-40
2022/11/23 09:10:59;;;;;;;22.52;6.55;;;8.50;99.90;;;;;;5004014;28;20137;-40
2022/11/23 09:13:26;;;;;;;23.63;5.85;;;8.50;99.90;;;;;;5010143;28;20054;-40
2022/11/23 09:15:57;;;;;;;26.90;6.25;;;8.50;99.90;;;;;;5013223;28;20548;-40
2022/11/23 09:18:25;;;;;;;25.07;6.57;;;8.50;99.90;;;;;;5028754;28;20112;-40
2022/11/23 09:20:52;;;;;;;20.70;6.18;;;8.50;99.90;;;;;;5007029;28;20108;-40
2022/11/23 09:23:18;;;;;;;27.35;6.07;;;8.60;99.90;;;;;;5013170;28;20089;-40
2022/11/23 09:25:47;;;;;;;18.63;6.50;;;8.50;99.90;;;;;;5013415;28;20092;-40
2022/11/23 09:28:14;;;;;;;21.98;6.07;;;8.60;99.90;;;;;;5012429;28;20128;-40
2022/11/23 09:30:41;;;;;;;19.02;5.18;;;8.60;99.90;;;;;;5012050;28;20081;-40
2022/11/23 09:33:07;;;;;;;23.58;5.57;;;8.60;99.90;;;;;;5011717;28;20116;-40
2022/11/23 09:35:35;;;;;;;22.95;5.18;;;8.70;99.90;;;;;;5012976;28;20050;-38
2022/11/23 09:38:02;;;;;;;31.40;6.72;;;8.70;99.90;;;;;;5013240;28;20118;-39
2022/11/23 09:40:31;;;;;;;26.05;6.03;;;8.70;99.90;;;;;;5011900;28;20050;-39
2022/11/23 09:43:05;;;;;;;24.98;6.28;;;8.70;99.90;;;;;;5013243;28;20093;-40
2022/11/23 09:45:35;;;;;;;25.55;6.25;;;8.70;99.90;;;;;;5013032;28;20470;-39
2022/11/23 09:48:31;;;;;;;19.67;5.40;;;8.70;99.90;;;;;;5012480;28;20049;-40
2022/11/23 09:51:01;;;;;;;26.90;5.68;;;8.70;99.90;;;;;;5004327;28;20086;-40
2022/11/23 09:53:30;;;;;;;19.75;5.25;;;8.80;99.90;;;;;;4992526;28;20051;-40
2022/11/23 09:55:57;;;;;;;18.98;4.75;;;8.80;99.90;;;;;;4993738;28;20168;-39
2022/11/23 09:58:25;;;;;;;17.77;4.53;;;8.80;99.90;;;;;;4998640;28;20141;-40
2022/11/23 10:00:55;;;;;;;24.45;5.10;;;8.80;99.90;;;;;;5010433;28;20469;-40
2022/11/23 10:03:22;;;;;;;24.80;4.97;;;8.80;99.90;;;;;;5010684;28;20085;-40
2022/11/23 10:05:57;;;;;;;23.33;4.63;;;8.80;99.90;;;;;;5012604;28;20061;-40
2022/11/23 10:08:30;;;;;;;26.10;5.07;;;8.90;99.90;;;;;;5003366;28;20085;-40
2022/11/23 10:10:59;;;;;;;23.17;4.53;;;8.90;99.90;;;;;;5011354;28;20120;-40
2022/11/23 10:13:31;;;;;;;18.63;4.35;;;8.90;99.90;;;;;;4997223;28;20092;-40
2022/11/23 10:16:27;;;;;;;21.60;4.20;;;8.90;99.90;;;;;;4993164;28;20112;-40
2022/11/23 10:18:56;;;;;;;18.95;4.47;;;8.90;99.90;;;;;;5008347;28;20129;-39
2022/11/23 10:21:29;;;;;;;23.45;4.80;;;8.90;99.90;;;;;;5011558;28;20081;-41
2022/11/23 10:23:59;;;;;;;18.80;4.45;;;8.90;99.90;;;;;;5002425;28;20104;-41
2022/11/23 10:26:28;;;;;;;23.05;4.82;;;8.90;99.90;;;;;;4995480;28;20586;-40
2022/11/23 10:28:54;;;;;;;25.00;4.88;;;8.80;99.90;;;;;;5010193;28;20054;-41
2022/11/23 10:31:21;;;;;;;18.73;4.10;;;8.90;99.90;;;;;;5015055;28;20101;-40
2022/11/23 10:33:56;;;;;;;17.35;4.10;;;8.90;99.90;;;;;;4999318;28;20572;-40
2022/11/23 10:36:23;;;;;;;23.48;4.88;;;8.90;99.90;;;;;;5007323;28;20089;-40
2022/11/23 10:38:50;;;;;;;19.15;4.18;;;8.90;99.90;;;;;;5016276;28;20473;-39
2022/11/23 10:41:18;;;;;;;23.90;4.05;;;8.90;99.90;;;;;;5016148;28;20054;-40
2022/11/23 10:43:46;;;;;;;25.58;4.43;;;9.00;99.90;;;;;;5002893;28;20132;-40
2022/11/23 10:46:29;;;;;;;22.52;4.20;;;9.00;99.90;;;;;;5015782;28;20050;-41
2022/11/23 10:48:56;;;;;;;21.20;4.43;;;9.00;99.90;;;;;;4996288;28;20050;-40
2022/11/23 10:51:27;;;;;;;19.70;3.80;;;9.00;99.90;;;;;;4995327;28;20100;-39
2022/11/23 10:53:55;;;;;;;23.42;4.25;;;9.00;99.90;;;;;;5012333;28;20052;-39
2022/11/23 10:56:24;;;;;;;19.40;3.92;;;9.10;99.90;;;;;;5015099;28;20567;-38
2022/11/23 10:58:50;;;;;;;22.98;4.47;;;9.10;99.90;;;;;;5015878;28;20084;-39
2022/11/23 11:01:21;;;;;;;20.50;4.10;;;9.10;99.90;;;;;;5014346;28;20405;-40
2022/11/23 11:03:48;;;;;;;16.88;3.45;;;9.20;99.90;;;;;;5012858;28;20045;-40
2022/11/23 11:06:21;;;;;;;25.65;3.80;;;9.20;99.90;;;;;;5014580;28;20084;-39
2022/11/23 11:08:49;;;;;;;25.38;3.75;;;9.30;99.90;;;;;;5014542;28;20518;-40
2022/11/23 11:11:24;;;;;;;22.33;4.13;;;9.40;99.90;;;;;;5015519;28;20089;-39
2022/11/23 11:13:51;;;;;;;20.67;3.90;;;9.50;99.90;;;;;;5030168;28;20053;-40
2022/11/23 11:16:19;;;;;;;20.95;3.95;;;9.60;99.90;;;;;;5015313;28;20104;-39
2022/11/23 11:18:46;;;;;;;20.45;3.95;;;9.70;99.90;;;;;;5013912;28;20096;-40
2022/11/23 11:21:19;;;;;;;19.65;3.95;;;9.70;99.90;;;;;;5014449;28;20085;-41
2022/11/23 11:23:51;;;;;;;23.15;4.03;;;9.80;99.90;;;;;;5013704;28;20082;-40
2022/11/23 11:26:18;;;;;;;;;;;9.90;99.90;;;;;;5015830;28;20050;-40
2022/11/23 11:28:49;;;;;;;15.32;3.03;;;9.90;99.90;;;;;;5014140;28;20012;-40
2022/11/23 11:31:27;;;;;;;24.27;4.65;;;9.90;99.90;;;;;;5014701;28;20442;-40
2022/11/23 11:33:57;;;;;;;23.45;3.55;;;10.00;99.90;;;;;;5004504;28;20054;-40
2022/11/23 11:36:24;;;;;;;24.92;4.60;;;10.10;99.90;;;;;;5014850;28;20129;-39
2022/11/23 11:38:51;;;;;;;15.68;3.42;;;10.10;99.90;;;;;;5014816;28;20049;-40
2022/11/23 11:41:23;;;;;;;18.88;4.10;;;10.20;99.90;;;;;;5014319;28;20441;-40
2022/11/23 11:43:52;;;;;;;;;;;10.20;99.90;;;;;;5015289;28;20061;-39
2022/11/23 11:46:21;;;;;;;16.38;3.30;;;10.20;99.90;;;;;;5013474;28;19968;-39
2022/11/23 11:48:51;;;;;;;25.15;4.43;;;10.30;99.90;;;;;;5012944;28;20468;-39
2022/11/23 11:51:19;;;;;;;15.45;3.03;;;10.30;99.90;;;;;;5012348;28;20081;-39
2022/11/23 11:53:49;;;;;;;16.05;3.17;;;10.40;99.90;;;;;;5014967;28;20476;-40
2022/11/23 11:56:18;;;;;;;15.40;3.50;;;10.40;99.90;;;;;;5014375;28;20081;-39
2022/11/23 11:58:51;;;;;;;21.45;3.70;;;10.40;99.90;;;;;;5014746;28;20594;-39
2022/11/23 12:01:21;;;;;;;17.10;3.85;;;10.50;99.90;;;;;;5011848;28;20062;-39
2022/11/23 12:03:51;;;;;;;17.52;2.90;;;10.50;99.90;;;;;;5012491;28;20049;-39
2022/11/23 12:06:20;;;;;;;15.98;2.47;;;10.60;99.90;;;;;;5012733;28;20088;-39
2022/11/23 12:08:50;;;;;;;21.17;2.95;;;10.60;99.90;;;;;;5014306;28;20089;-40
2022/11/23 12:11:18;;;;;;;14.23;2.55;;;10.60;99.90;;;;;;5014533;28;20086;-40
2022/11/23 12:13:45;;;;;;;17.60;3.35;;;10.60;99.90;;;;;;5012400;28;20045;-40
2022/11/23 12:16:17;;;;;;;16.35;3.47;;;10.60;99.90;;;;;;5013297;28;20489;-40
2022/11/23 12:19:00;;;;;;;24.25;3.38;;;10.60;99.90;;;;;;5011669;28;20457;-40
2022/11/23 12:21:51;;;;;;;21.15;3.45;;;10.60;99.90;;;;;;5013214;28;20140;-40
2022/11/23 12:24:20;;;;;;;18.38;3.53;;;10.60;99.90;;;;;;5013546;28;20085;-40
2022/11/23 12:26:51;;;;;;;15.98;2.95;;;10.50;99.90;;;;;;5009298;28;20482;-40
2022/11/23 12:29:35;;;;;;;23.08;3.85;;;10.50;99.90;;;;;;5002495;28;20132;-39
2022/11/23 12:32:07;;;;;;;23.13;3.50;;;10.50;99.90;;;;;;5009437;28;20073;-39
2022/11/23 12:34:39;;;;;;;;;;;10.50;99.90;;;;;;5014295;28;20506;-40
2022/11/23 12:37:24;;;;;;;19.85;3.47;;;10.60;99.90;;;;;;5013448;28;19921;-39
2022/11/23 12:40:06;;;;;;;13.48;2.63;;;10.60;99.90;;;;;;5013857;28;20069;-40
2022/11/23 12:42:36;;;;;;;15.98;3.05;;;10.70;99.90;;;;;;5013817;28;20145;-40
2022/11/23 12:45:29;;;;;;;14.23;2.95;;;10.60;99.90;;;;;;5013264;28;20405;-39